createdAt,value
2018-03-03T00:00:46.160Z,101.80
2018-03-03T00:01:46.094Z,123.80
2018-03-03T00:02:45.931Z,116.70
2018-03-03T00:03:45.868Z,101.90
2018-03-03T00:04:45.779Z,105.50
2018-03-03T00:05:45.633Z,132.60
2018-03-03T00:06:45.551Z,146.30
2018-03-03T00:07:45.501Z,101.10
2018-03-03T00:08:45.408Z,102.90
2018-03-03T00:09:45.277Z,102.50
2018-03-03T00:10:45.200Z,105.10
2018-03-03T00:11:45.103Z,90.80
2018-03-03T00:12:44.984Z,95.40
2018-03-03T00:13:44.941Z,92.90
2018-03-03T00:14:44.750Z,122.10
2018-03-03T00:15:44.681Z,90.20
2018-03-03T00:16:44.688Z,90.80
2018-03-03T00:17:44.478Z,85.90
2018-03-03T00:18:44.414Z,94.30
2018-03-03T00:19:44.308Z,84.20
2018-03-03T00:20:44.163Z,84.70
2018-03-03T00:21:44.049Z,86.30
2018-03-03T00:22:43.956Z,85.40
2018-03-03T00:23:43.858Z,112.70
2018-03-03T00:24:43.774Z,88.00
2018-03-03T00:25:43.678Z,99.60
2018-03-03T00:26:43.552Z,90.60
2018-03-03T00:27:43.445Z,82.50
2018-03-03T00:28:43.361Z,77.70
2018-03-03T00:29:43.237Z,79.10
2018-03-03T00:30:43.140Z,85.10
2018-03-03T00:31:43.103Z,78.50
2018-03-03T00:32:42.953Z,77.20
2018-03-03T00:33:42.852Z,78.90
2018-03-03T00:34:42.798Z,91.40
2018-03-03T00:35:42.663Z,97.40
2018-03-03T00:36:42.561Z,75.10
2018-03-03T00:37:42.471Z,74.20
2018-03-03T00:38:42.390Z,119.70
2018-03-03T00:39:42.294Z,90.30
2018-03-03T00:40:42.170Z,91.80
2018-03-03T00:41:42.052Z,86.30
2018-03-03T00:42:41.946Z,79.30
2018-03-03T00:43:41.928Z,90.90
2018-03-03T00:44:41.767Z,80.60
2018-03-03T00:45:41.658Z,80.00
2018-03-03T00:46:41.566Z,79.80
2018-03-03T00:47:41.430Z,69.20
2018-03-03T00:48:41.336Z,72.50
2018-03-03T00:49:41.256Z,74.10
2018-03-03T00:50:41.116Z,74.40
2018-03-03T00:51:41.023Z,75.80
2018-03-03T00:52:40.915Z,74.70
2018-03-03T00:53:40.819Z,69.80
2018-03-03T00:54:40.718Z,74.00
2018-03-03T00:55:40.701Z,72.30
2018-03-03T00:56:40.525Z,74.60
2018-03-03T00:57:40.433Z,71.60
2018-03-03T00:58:40.316Z,76.80
2018-03-03T00:59:40.218Z,72.00
2018-03-03T01:00:40.183Z,79.10
2018-03-03T01:01:40.099Z,74.10
2018-03-03T01:02:39.934Z,73.60
2018-03-03T01:03:39.824Z,73.60
2018-03-03T01:04:39.724Z,75.50
2018-03-03T01:05:39.640Z,72.60
2018-03-03T01:06:39.566Z,76.90
2018-03-03T01:07:39.496Z,70.10
2018-03-03T01:08:39.353Z,75.90
2018-03-03T01:09:39.264Z,74.50
2018-03-03T01:10:39.142Z,70.60
2018-03-03T01:11:39.029Z,71.00
2018-03-03T01:12:38.956Z,75.80
2018-03-03T01:13:38.874Z,72.40
2018-03-03T01:14:38.720Z,73.60
2018-03-03T01:15:38.621Z,71.80
2018-03-03T01:16:38.530Z,72.90
2018-03-03T01:17:38.424Z,73.90
2018-03-03T01:18:38.335Z,75.30
2018-03-03T01:19:38.291Z,77.10
2018-03-03T01:20:38.120Z,80.70
2018-03-03T01:21:38.016Z,71.40
2018-03-03T01:22:37.915Z,71.10
2018-03-03T01:23:37.820Z,72.50
2018-03-03T01:24:37.729Z,75.70
2018-03-03T01:25:37.658Z,73.00
2018-03-03T01:26:37.526Z,76.80
2018-03-03T01:27:37.445Z,73.80
2018-03-03T01:28:37.337Z,72.40
2018-03-03T01:29:37.230Z,75.20
2018-03-03T01:30:37.157Z,73.10
2018-03-03T01:31:37.101Z,71.30
2018-03-03T01:32:36.933Z,72.40
2018-03-03T01:33:36.841Z,73.50
2018-03-03T01:34:36.777Z,77.20
2018-03-03T01:35:36.653Z,72.30
2018-03-03T01:36:36.574Z,76.30
2018-03-03T01:37:36.534Z,74.60
2018-03-03T01:38:36.325Z,71.50
2018-03-03T01:39:36.228Z,70.50
2018-03-03T01:40:36.129Z,75.20
2018-03-03T01:41:36.025Z,71.50
2018-03-03T01:42:35.909Z,75.00
2018-03-03T01:43:35.840Z,77.50
2018-03-03T01:44:35.715Z,76.60
2018-03-03T01:45:35.620Z,74.10
2018-03-03T01:46:35.516Z,73.00
2018-03-03T01:47:35.418Z,73.80
2018-03-03T01:48:35.322Z,76.90
2018-03-03T01:49:35.244Z,76.70
2018-03-03T01:50:35.125Z,72.60
2018-03-03T01:51:35.020Z,77.10
2018-03-03T01:52:34.937Z,76.60
2018-03-03T01:53:34.828Z,76.40
2018-03-03T01:54:34.714Z,74.50
2018-03-03T01:55:34.673Z,78.40
2018-03-03T01:56:34.542Z,73.20
2018-03-03T01:57:34.432Z,74.80
2018-03-03T01:58:34.316Z,75.20
2018-03-03T01:59:34.235Z,72.60
2018-03-03T02:00:34.131Z,72.50
2018-03-03T02:01:34.090Z,73.90
2018-03-03T02:02:33.952Z,75.00
2018-03-03T02:03:33.851Z,75.60
2018-03-03T02:04:33.751Z,76.70
2018-03-03T02:05:33.646Z,79.40
2018-03-03T02:06:33.507Z,78.50
2018-03-03T02:07:33.444Z,78.00
2018-03-03T02:08:33.311Z,78.90
2018-03-03T02:09:33.214Z,77.30
2018-03-03T02:10:33.114Z,74.30
2018-03-03T02:11:33.010Z,74.30
2018-03-03T02:12:32.910Z,76.10
2018-03-03T02:13:32.844Z,75.60
2018-03-03T02:14:32.712Z,79.80
2018-03-03T02:15:32.612Z,76.20
2018-03-03T02:16:32.518Z,75.40
2018-03-03T02:17:32.420Z,79.00
2018-03-03T02:18:32.321Z,79.80
2018-03-03T02:19:32.272Z,76.30
2018-03-03T02:20:32.129Z,78.40
2018-03-03T02:21:32.018Z,82.30
2018-03-03T02:22:31.940Z,76.80
2018-03-03T02:23:31.846Z,76.90
2018-03-03T02:24:31.742Z,73.30
2018-03-03T02:25:31.676Z,79.20
2018-03-03T02:26:31.527Z,81.20
2018-03-03T02:27:31.449Z,79.60
2018-03-03T02:28:31.341Z,77.20
2018-03-03T02:29:31.256Z,79.90
2018-03-03T02:30:31.129Z,79.00
2018-03-03T02:31:31.084Z,75.30
2018-03-03T02:32:30.910Z,80.10
2018-03-03T02:33:30.803Z,79.90
2018-03-03T02:34:30.702Z,83.30
2018-03-03T02:35:30.605Z,75.60
2018-03-03T02:36:30.506Z,81.90
2018-03-03T02:37:30.431Z,79.50
2018-03-03T02:38:30.304Z,83.00
2018-03-03T02:39:30.198Z,79.30
2018-03-03T02:40:30.097Z,78.90
2018-03-03T02:41:30.013Z,81.60
2018-03-03T02:42:29.906Z,81.80
2018-03-03T02:43:29.851Z,78.70
2018-03-03T02:44:29.714Z,82.80
2018-03-03T02:45:29.601Z,78.40
2018-03-03T02:46:30.133Z,78.60
2018-03-03T02:47:29.414Z,86.10
2018-03-03T02:48:29.318Z,80.60
2018-03-03T02:49:29.274Z,78.70
2018-03-03T02:50:29.148Z,79.70
2018-03-03T02:51:29.043Z,77.80
2018-03-03T02:52:28.931Z,81.10
2018-03-03T02:53:28.844Z,75.70
2018-03-03T02:54:28.723Z,81.10
2018-03-03T02:55:28.657Z,82.40
2018-03-03T02:56:28.510Z,81.90
2018-03-03T02:57:28.409Z,75.60
2018-03-03T02:58:28.316Z,78.70
2018-03-03T02:59:28.187Z,75.00
2018-03-03T03:00:28.089Z,74.50
2018-03-03T03:01:28.058Z,75.10
2018-03-03T03:02:27.898Z,75.30
2018-03-03T03:03:27.795Z,79.70
2018-03-03T03:04:27.693Z,79.30
2018-03-03T03:05:27.598Z,83.40
2018-03-03T03:06:27.493Z,79.80
2018-03-03T03:07:27.452Z,78.60
2018-03-03T03:08:27.293Z,86.00
2018-03-03T03:09:27.198Z,81.30
2018-03-03T03:10:27.090Z,78.30
2018-03-03T03:11:26.992Z,77.30
2018-03-03T03:12:26.909Z,82.00
2018-03-03T03:13:26.860Z,77.30
2018-03-03T03:14:26.701Z,82.00
2018-03-03T03:15:26.601Z,77.00
2018-03-03T03:16:26.514Z,79.20
2018-03-03T03:17:26.424Z,82.20
2018-03-03T03:18:26.303Z,83.80
2018-03-03T03:19:26.250Z,83.20
2018-03-03T03:20:26.098Z,84.40
2018-03-03T03:21:26.036Z,77.70
2018-03-03T03:22:25.897Z,81.30
2018-03-03T03:23:25.829Z,79.10
2018-03-03T03:24:25.721Z,75.70
2018-03-03T03:25:25.636Z,77.20
2018-03-03T03:26:25.496Z,81.00
2018-03-03T03:27:25.389Z,78.00
2018-03-03T03:28:25.284Z,75.90
2018-03-03T03:29:25.196Z,78.00
2018-03-03T03:30:25.093Z,77.00
2018-03-03T03:31:25.034Z,76.70
2018-03-03T03:32:24.885Z,81.00
2018-03-03T03:33:24.788Z,82.80
2018-03-03T03:34:24.691Z,78.60
2018-03-03T03:35:24.588Z,77.80
2018-03-03T03:36:24.494Z,77.90
2018-03-03T03:37:24.415Z,81.00
2018-03-03T03:38:24.323Z,78.60
2018-03-03T03:39:24.242Z,77.90
2018-03-03T03:40:24.094Z,78.10
2018-03-03T03:41:23.989Z,73.50
2018-03-03T03:42:23.914Z,77.80
2018-03-03T03:43:23.916Z,76.20
2018-03-03T03:44:23.720Z,73.90
2018-03-03T03:45:23.633Z,81.40
2018-03-03T03:46:23.536Z,77.00
2018-03-03T03:47:23.410Z,78.70
2018-03-03T03:48:23.306Z,78.50
2018-03-03T03:49:23.250Z,77.70
2018-03-03T03:50:23.105Z,76.50
2018-03-03T03:51:22.988Z,78.50
2018-03-03T03:52:22.882Z,76.70
2018-03-03T03:53:22.782Z,75.10
2018-03-03T03:54:22.678Z,75.80
2018-03-03T03:55:22.604Z,80.60
2018-03-03T03:56:22.485Z,78.60
2018-03-03T03:57:22.391Z,76.10
2018-03-03T03:58:22.287Z,81.80
2018-03-03T03:59:22.182Z,78.60
2018-03-03T04:00:22.079Z,81.30
2018-03-03T04:01:22.017Z,77.60
2018-03-03T04:02:21.881Z,81.90
2018-03-03T04:03:21.793Z,77.10
2018-03-03T04:04:21.710Z,75.50
2018-03-03T04:05:21.621Z,82.00
2018-03-03T04:06:21.516Z,76.50
2018-03-03T04:07:21.471Z,79.30
2018-03-03T04:08:21.342Z,80.70
2018-03-03T04:09:21.187Z,77.80
2018-03-03T04:10:21.090Z,75.30
2018-03-03T04:11:21.007Z,78.70
2018-03-03T04:12:20.897Z,74.80
2018-03-03T04:13:20.854Z,82.50
2018-03-03T04:14:20.727Z,80.70
2018-03-03T04:15:20.603Z,77.40
2018-03-03T04:16:20.536Z,75.60
2018-03-03T04:17:20.410Z,74.00
2018-03-03T04:18:20.282Z,78.80
2018-03-03T04:19:20.221Z,77.30
2018-03-03T04:20:20.162Z,80.40
2018-03-03T04:21:19.970Z,82.40
2018-03-03T04:22:19.881Z,75.40
2018-03-03T04:23:19.794Z,75.20
2018-03-03T04:24:19.679Z,74.70
2018-03-03T04:25:19.640Z,77.50
2018-03-03T04:26:19.458Z,76.20
2018-03-03T04:27:19.410Z,80.00
2018-03-03T04:28:19.275Z,77.80
2018-03-03T04:29:19.160Z,77.10
2018-03-03T04:30:19.059Z,82.90
2018-03-03T04:31:19.055Z,73.90
2018-03-03T04:32:18.906Z,76.70
2018-03-03T04:33:18.806Z,79.80
2018-03-03T04:34:18.707Z,76.80
2018-03-03T04:35:18.571Z,76.90
2018-03-03T04:36:18.517Z,80.90
2018-03-03T04:37:18.436Z,78.80
2018-03-03T04:38:18.307Z,77.70
2018-03-03T04:39:18.160Z,79.50
2018-03-03T04:40:18.101Z,83.30
2018-03-03T04:41:17.988Z,79.80
2018-03-03T04:42:17.886Z,77.00
2018-03-03T04:43:17.846Z,77.70
2018-03-03T04:44:17.672Z,79.00
2018-03-03T04:45:17.566Z,79.10
2018-03-03T04:46:17.450Z,80.00
2018-03-03T04:47:17.350Z,77.40
2018-03-03T04:48:17.256Z,78.70
2018-03-03T04:49:17.165Z,75.40
2018-03-03T04:50:17.043Z,76.90
2018-03-03T04:51:16.944Z,82.50
2018-03-03T04:52:16.864Z,76.10
2018-03-03T04:53:16.757Z,77.70
2018-03-03T04:54:16.639Z,82.80
2018-03-03T04:55:16.589Z,84.10
2018-03-03T04:56:16.448Z,79.50
2018-03-03T04:57:16.350Z,79.60
2018-03-03T04:58:16.279Z,78.70
2018-03-03T04:59:16.161Z,76.90
2018-03-03T05:00:16.064Z,72.80
2018-03-03T05:01:16.007Z,75.50
2018-03-03T05:02:15.861Z,73.10
2018-03-03T05:03:15.756Z,75.50
2018-03-03T05:04:15.674Z,77.40
2018-03-03T05:05:15.575Z,78.30
2018-03-03T05:06:15.453Z,74.10
2018-03-03T05:07:15.385Z,78.60
2018-03-03T05:08:15.290Z,74.50
2018-03-03T05:09:15.157Z,70.10
2018-03-03T05:10:15.035Z,75.00
2018-03-03T05:11:14.940Z,72.70
2018-03-03T05:12:14.839Z,74.60
2018-03-03T05:13:14.766Z,75.40
2018-03-03T05:14:14.639Z,78.20
2018-03-03T05:15:14.531Z,76.70
2018-03-03T05:16:14.449Z,78.20
2018-03-03T05:17:14.329Z,75.60
2018-03-03T05:18:14.238Z,75.60
2018-03-03T05:19:14.159Z,74.80
2018-03-03T05:20:14.029Z,75.20
2018-03-03T05:21:13.944Z,71.30
2018-03-03T05:22:13.833Z,75.90
2018-03-03T05:23:13.759Z,73.80
2018-03-03T05:24:13.688Z,73.50
2018-03-03T05:25:13.595Z,72.50
2018-03-03T05:26:13.456Z,77.60
2018-03-03T05:27:13.356Z,68.70
2018-03-03T05:28:13.298Z,69.80
2018-03-03T05:29:13.175Z,71.90
2018-03-03T05:30:13.046Z,73.30
2018-03-03T05:31:13.005Z,73.10
2018-03-03T05:32:12.845Z,73.80
2018-03-03T05:33:12.729Z,75.50
2018-03-03T05:34:12.632Z,74.60
2018-03-03T05:35:12.563Z,76.20
2018-03-03T05:36:12.453Z,75.40
2018-03-03T05:37:12.341Z,76.30
2018-03-03T05:38:12.224Z,74.50
2018-03-03T05:39:12.118Z,78.70
2018-03-03T05:40:12.028Z,72.10
2018-03-03T05:41:11.915Z,76.80
2018-03-03T05:42:11.810Z,79.20
2018-03-03T05:43:11.739Z,79.60
2018-03-03T05:44:11.620Z,108.50
2018-03-03T05:45:11.521Z,85.90
2018-03-03T05:46:11.407Z,85.60
2018-03-03T05:47:11.335Z,81.80
2018-03-03T05:48:11.220Z,72.40
2018-03-03T05:49:11.171Z,75.70
2018-03-03T05:50:11.070Z,74.40
2018-03-03T05:51:10.938Z,70.00
2018-03-03T05:52:10.853Z,71.30
2018-03-03T05:53:10.707Z,73.70
2018-03-03T05:54:10.638Z,70.90
2018-03-03T05:55:10.559Z,72.50
2018-03-03T05:56:10.418Z,70.90
2018-03-03T05:57:10.348Z,68.40
2018-03-03T05:58:10.371Z,75.60
2018-03-03T05:59:10.142Z,72.80
2018-03-03T06:00:10.035Z,74.00
2018-03-03T06:01:09.992Z,77.20
2018-03-03T06:02:10.067Z,76.70
2018-03-03T06:03:09.740Z,76.20
2018-03-03T06:04:09.838Z,72.30
2018-03-03T06:05:09.511Z,75.20
2018-03-03T06:06:09.412Z,71.70
2018-03-03T06:07:09.765Z,73.80
2018-03-03T06:08:09.202Z,75.10
2018-03-03T06:09:09.118Z,74.50
2018-03-03T06:10:09.009Z,75.70
2018-03-03T06:11:08.934Z,73.20
2018-03-03T06:12:08.818Z,75.50
2018-03-03T06:13:08.780Z,73.10
2018-03-03T06:14:08.604Z,74.90
2018-03-03T06:15:08.675Z,76.50
2018-03-03T06:16:08.428Z,74.20
2018-03-03T06:17:08.500Z,75.20
2018-03-03T06:18:08.228Z,76.50
2018-03-03T06:19:08.185Z,77.10
2018-03-03T06:20:08.182Z,78.60
2018-03-03T06:21:07.930Z,71.40
2018-03-03T06:22:07.954Z,79.20
2018-03-03T06:23:07.766Z,71.30
2018-03-03T06:24:07.632Z,70.00
2018-03-03T06:25:07.606Z,77.00
2018-03-03T06:26:07.457Z,78.10
2018-03-03T06:27:07.440Z,71.10
2018-03-03T06:28:07.193Z,75.70
2018-03-03T06:29:07.098Z,77.00
2018-03-03T06:30:06.995Z,77.20
2018-03-03T06:31:06.930Z,72.40
2018-03-03T06:32:06.819Z,75.80
2018-03-03T06:33:06.696Z,73.40
2018-03-03T06:34:06.599Z,74.50
2018-03-03T06:35:06.507Z,74.00
2018-03-03T06:36:06.392Z,70.70
2018-03-03T06:37:06.321Z,73.00
2018-03-03T06:38:06.203Z,76.80
2018-03-03T06:39:06.100Z,73.80
2018-03-03T06:40:06.009Z,77.00
2018-03-03T06:41:05.939Z,70.00
2018-03-03T06:42:05.885Z,78.50
2018-03-03T06:43:05.793Z,75.10
2018-03-03T06:44:05.620Z,75.30
2018-03-03T06:45:05.634Z,68.80
2018-03-03T06:46:05.425Z,72.10
2018-03-03T06:47:05.321Z,76.10
2018-03-03T06:48:05.228Z,74.90
2018-03-03T06:49:05.179Z,78.50
2018-03-03T06:50:05.167Z,76.70
2018-03-03T06:51:04.940Z,71.60
2018-03-03T06:52:04.795Z,79.30
2018-03-03T06:53:04.692Z,73.10
2018-03-03T06:54:04.592Z,70.20
2018-03-03T06:55:04.532Z,75.00
2018-03-03T06:56:04.407Z,76.30
2018-03-03T06:57:04.290Z,78.80
2018-03-03T06:58:04.186Z,74.40
2018-03-03T06:59:04.081Z,75.90
2018-03-03T07:00:03.979Z,78.20
2018-03-03T07:01:03.926Z,78.10
2018-03-03T07:02:03.781Z,77.80
2018-03-03T07:03:03.684Z,73.80
2018-03-03T07:04:03.613Z,71.00
2018-03-03T07:05:03.494Z,72.80
2018-03-03T07:06:03.419Z,73.20
2018-03-03T07:07:03.365Z,68.60
2018-03-03T07:08:03.246Z,75.70
2018-03-03T07:09:06.647Z,71.00
2018-03-03T07:10:03.018Z,75.80
2018-03-03T07:11:03.036Z,76.10
2018-03-03T07:12:02.954Z,70.00
2018-03-03T07:13:02.786Z,75.30
2018-03-03T07:14:02.636Z,73.00
2018-03-03T07:15:02.628Z,75.10
2018-03-03T07:16:02.459Z,71.00
2018-03-03T07:17:02.373Z,80.80
2018-03-03T07:18:02.208Z,79.70
2018-03-03T07:19:02.202Z,70.60
2018-03-03T07:20:02.019Z,79.10
2018-03-03T07:21:01.911Z,77.50
2018-03-03T07:22:01.801Z,78.70
2018-03-03T07:23:01.685Z,78.10
2018-03-03T07:24:01.678Z,80.80
2018-03-03T07:25:01.771Z,83.60
2018-03-03T07:26:01.594Z,75.40
2018-03-03T07:27:01.306Z,76.70
2018-03-03T07:28:01.190Z,79.40
2018-03-03T07:29:01.085Z,79.70
2018-03-03T07:30:01.026Z,81.90
2018-03-03T07:31:00.967Z,77.60
2018-03-03T07:32:01.000Z,77.50
2018-03-03T07:33:00.747Z,74.20
2018-03-03T07:34:00.660Z,80.50
2018-03-03T07:35:00.551Z,75.80
2018-03-03T07:36:00.429Z,83.90
2018-03-03T07:37:00.462Z,73.60
2018-03-03T07:38:00.236Z,71.80
2018-03-03T07:39:00.143Z,84.30
2018-03-03T07:40:00.068Z,76.50
2018-03-03T07:40:59.933Z,75.40
2018-03-03T07:41:59.848Z,87.30
2018-03-03T07:42:59.780Z,86.90
2018-03-03T07:43:59.610Z,80.60
2018-03-03T07:44:59.504Z,79.00
2018-03-03T07:45:59.410Z,92.50
2018-03-03T07:46:59.304Z,101.80
2018-03-03T07:47:59.187Z,106.70
2018-03-03T07:48:59.133Z,88.80
2018-03-03T07:49:59.006Z,70.40
2018-03-03T07:50:58.931Z,78.70
2018-03-03T07:51:58.800Z,92.40
2018-03-03T07:52:58.702Z,120.50
2018-03-03T07:53:58.627Z,84.50
2018-03-03T07:54:58.570Z,121.60
2018-03-03T07:55:58.401Z,82.80
2018-03-03T07:56:58.332Z,93.90
2018-03-03T07:57:58.227Z,82.60
2018-03-03T07:58:58.111Z,83.40
2018-03-03T07:59:58.034Z,109.30
2018-03-03T08:00:57.965Z,71.50
2018-03-03T08:01:57.812Z,87.90
2018-03-03T08:02:57.747Z,89.10
2018-03-03T08:03:57.639Z,80.70
2018-03-03T08:04:57.551Z,76.20
2018-03-03T08:05:57.487Z,77.80
2018-03-03T08:06:57.368Z,79.10
2018-03-03T08:07:57.230Z,82.50
2018-03-03T08:08:57.138Z,73.40
2018-03-03T08:09:56.998Z,89.50
2018-03-03T08:10:56.891Z,76.80
2018-03-03T08:11:56.788Z,75.40
2018-03-03T08:12:56.738Z,79.90
2018-03-03T08:13:56.611Z,105.30
2018-03-03T08:14:56.504Z,80.10
2018-03-03T08:15:56.404Z,93.40
2018-03-03T08:16:56.302Z,77.80
2018-03-03T08:17:56.190Z,82.30
2018-03-03T08:18:56.134Z,77.20
2018-03-03T08:19:56.007Z,75.30
2018-03-03T08:20:55.929Z,77.30
2018-03-03T08:21:55.833Z,71.20
2018-03-03T08:22:55.722Z,72.80
2018-03-03T08:23:55.650Z,75.90
2018-03-03T08:24:55.624Z,77.00
2018-03-03T08:25:55.427Z,74.50
2018-03-03T08:26:55.313Z,78.90
2018-03-03T08:27:55.241Z,109.20
2018-03-03T08:28:55.162Z,113.20
2018-03-03T08:29:55.062Z,98.70
2018-03-03T08:30:54.991Z,81.90
2018-03-03T08:31:54.852Z,79.50
2018-03-03T08:32:54.732Z,146.70
2018-03-03T08:33:54.678Z,89.70
2018-03-03T08:34:54.518Z,128.90
2018-03-03T08:35:54.413Z,183.20
2018-03-03T08:36:54.379Z,195.50
2018-03-03T08:37:54.237Z,235.50
2018-03-03T08:38:54.109Z,139.80
2018-03-03T08:39:54.008Z,222.90
2018-03-03T08:40:53.923Z,135.70
2018-03-03T08:41:53.824Z,123.30
2018-03-03T08:42:53.781Z,110.90
2018-03-03T08:43:53.644Z,89.90
2018-03-03T08:44:53.522Z,89.00
2018-03-03T08:45:53.428Z,88.60
2018-03-03T08:46:53.320Z,81.30
2018-03-03T08:47:53.275Z,80.20
2018-03-03T08:48:53.312Z,80.90
2018-03-03T08:49:57.948Z,82.60
2018-03-03T08:50:53.146Z,85.30
2018-03-03T08:51:52.837Z,88.00
2018-03-03T08:52:52.764Z,86.20
2018-03-03T08:53:52.661Z,85.80
2018-03-03T08:54:52.570Z,84.90
2018-03-03T08:55:52.486Z,83.00
2018-03-03T08:56:52.350Z,82.80
2018-03-03T08:57:52.286Z,81.00
2018-03-03T08:58:52.180Z,84.80
2018-03-03T08:59:52.076Z,89.20
2018-03-03T09:00:51.957Z,84.30
2018-03-03T09:01:51.836Z,89.80
2018-03-03T09:02:51.776Z,87.30
2018-03-03T09:03:51.641Z,86.70
2018-03-03T09:04:51.556Z,88.60
2018-03-03T09:05:51.451Z,84.10
2018-03-03T09:06:51.408Z,88.50
2018-03-03T09:07:51.269Z,87.30
2018-03-03T09:08:51.129Z,93.40
2018-03-03T09:09:51.092Z,83.40
2018-03-03T09:10:50.950Z,87.20
2018-03-03T09:11:50.874Z,88.80
2018-03-03T09:12:50.821Z,85.40
2018-03-03T09:13:50.690Z,93.80
2018-03-03T09:14:50.564Z,88.60
2018-03-03T09:15:50.491Z,88.10
2018-03-03T09:16:50.375Z,93.30
2018-03-03T09:17:50.252Z,95.10
2018-03-03T09:18:50.211Z,86.70
2018-03-03T09:19:50.064Z,90.60
2018-03-03T09:20:49.957Z,85.60
2018-03-03T09:21:49.901Z,86.30
2018-03-03T09:22:49.790Z,92.40
2018-03-03T09:23:49.685Z,92.70
2018-03-03T09:24:49.696Z,95.70
2018-03-03T09:25:49.515Z,86.40
2018-03-03T09:26:49.390Z,84.80
2018-03-03T09:27:49.318Z,91.80
2018-03-03T09:28:49.189Z,87.60
2018-03-03T09:29:49.072Z,85.50
2018-03-03T09:30:49.011Z,87.90
2018-03-03T09:31:48.872Z,86.70
2018-03-03T09:32:48.768Z,98.90
2018-03-03T09:33:48.671Z,92.50
2018-03-03T09:34:48.576Z,86.30
2018-03-03T09:35:48.484Z,84.50
2018-03-03T09:36:48.452Z,86.10
2018-03-03T09:37:48.308Z,82.60
2018-03-03T09:38:48.189Z,85.30
2018-03-03T09:39:48.257Z,84.20
2018-03-03T09:40:48.004Z,88.10
2018-03-03T09:41:47.912Z,87.50
2018-03-03T09:42:47.877Z,87.30
2018-03-03T09:43:47.725Z,88.10
2018-03-03T09:44:47.607Z,85.10
2018-03-03T09:45:48.269Z,88.60
2018-03-03T09:46:47.452Z,93.30
2018-03-03T09:47:47.324Z,86.10
2018-03-03T09:48:47.282Z,90.20
2018-03-03T09:49:47.102Z,98.30
2018-03-03T09:50:46.997Z,122.90
2018-03-03T09:51:46.904Z,148.80
2018-03-03T09:52:46.820Z,118.30
2018-03-03T09:53:46.703Z,187.00
2018-03-03T09:54:46.685Z,193.80
2018-03-03T09:55:46.491Z,220.70
2018-03-03T09:56:46.418Z,114.80
2018-03-03T09:57:46.328Z,173.80
2018-03-03T09:58:46.252Z,144.90
2018-03-03T09:59:46.109Z,209.20
2018-03-03T10:00:46.078Z,143.50
2018-03-03T10:01:52.330Z,117.00
2018-03-03T10:02:45.824Z,159.60
2018-03-03T10:03:45.773Z,120.80
2018-03-03T10:04:45.683Z,119.50
2018-03-03T10:05:45.543Z,104.20
2018-03-03T10:06:45.483Z,110.80
2018-03-03T10:07:45.345Z,95.00
2018-03-03T10:08:45.233Z,91.90
2018-03-03T10:09:45.121Z,112.10
2018-03-03T10:10:45.039Z,136.00
2018-03-03T10:11:44.932Z,108.10
2018-03-03T10:12:44.911Z,94.50
2018-03-03T10:13:44.739Z,93.40
2018-03-03T10:14:44.625Z,99.10
2018-03-03T10:15:44.516Z,90.70
2018-03-03T10:16:44.413Z,90.30
2018-03-03T10:17:44.328Z,87.50
2018-03-03T10:18:44.286Z,90.50
2018-03-03T10:19:44.119Z,89.30
2018-03-03T10:20:44.030Z,94.40
2018-03-03T10:21:43.935Z,90.80
2018-03-03T10:22:43.829Z,91.90
2018-03-03T10:23:43.724Z,90.00
2018-03-03T10:24:43.655Z,99.50
2018-03-03T10:25:43.536Z,90.70
2018-03-03T10:26:43.434Z,92.10
2018-03-03T10:27:43.395Z,97.80
2018-03-03T10:28:43.297Z,96.10
2018-03-03T10:29:43.151Z,94.50
2018-03-03T10:30:43.096Z,97.60
2018-03-03T10:31:43.012Z,100.00
2018-03-03T10:32:42.881Z,99.90
2018-03-03T10:33:42.774Z,96.40
2018-03-03T10:34:42.675Z,100.50
2018-03-03T10:35:42.564Z,98.20
2018-03-03T10:36:42.562Z,105.50
2018-03-03T10:37:42.370Z,95.70
2018-03-03T10:38:42.301Z,121.70
2018-03-03T10:39:42.173Z,132.50
2018-03-03T10:40:42.082Z,161.60
2018-03-03T10:41:41.971Z,140.10
2018-03-03T10:42:41.924Z,121.80
2018-03-03T10:43:41.757Z,129.60
2018-03-03T10:44:41.676Z,142.90
2018-03-03T10:45:41.560Z,163.10
2018-03-03T10:46:41.470Z,156.70
2018-03-03T10:47:41.364Z,133.70
2018-03-03T10:48:41.325Z,122.80
2018-03-03T10:49:41.214Z,111.40
2018-03-03T10:50:41.150Z,118.50
2018-03-03T10:51:40.983Z,109.20
2018-03-03T10:52:40.904Z,99.10
2018-03-03T10:53:40.797Z,106.80
2018-03-03T10:54:40.782Z,109.60
2018-03-03T10:55:40.646Z,108.20
2018-03-03T10:56:40.522Z,111.70
2018-03-03T10:57:40.417Z,100.30
2018-03-03T10:58:40.338Z,96.60
2018-03-03T10:59:40.237Z,106.10
2018-03-03T11:00:40.152Z,109.20
2018-03-03T11:01:40.038Z,103.30
2018-03-03T11:02:39.914Z,109.30
2018-03-03T11:03:39.848Z,99.40
2018-03-03T11:04:39.711Z,102.10
2018-03-03T11:05:39.635Z,106.50
2018-03-03T11:06:39.540Z,97.30
2018-03-03T11:07:39.407Z,96.80
2018-03-03T11:08:39.311Z,95.30
2018-03-03T11:09:39.210Z,98.20
2018-03-03T11:10:39.113Z,91.00
2018-03-03T11:11:39.026Z,100.40
2018-03-03T11:12:38.998Z,93.30
2018-03-03T11:13:38.851Z,100.30
2018-03-03T11:14:38.726Z,94.70
2018-03-03T11:15:38.618Z,103.40
2018-03-03T11:16:38.517Z,98.40
2018-03-03T11:17:38.429Z,98.00
2018-03-03T11:18:38.397Z,96.90
2018-03-03T11:19:38.240Z,98.70
2018-03-03T11:20:38.155Z,91.80
2018-03-03T11:21:38.052Z,94.70
2018-03-03T11:22:37.962Z,95.40
2018-03-03T11:23:37.852Z,96.50
2018-03-03T11:24:37.823Z,96.90
2018-03-03T11:25:37.721Z,89.40
2018-03-03T11:26:37.585Z,94.30
2018-03-03T11:27:37.656Z,95.00
2018-03-03T11:28:37.526Z,94.20
2018-03-03T11:29:37.251Z,86.40
2018-03-03T11:30:37.195Z,99.30
2018-03-03T11:31:37.142Z,94.10
2018-03-03T11:32:36.972Z,96.10
2018-03-03T11:33:36.890Z,96.10
2018-03-03T11:34:36.786Z,121.60
2018-03-03T11:35:36.815Z,97.10
2018-03-03T11:36:36.692Z,115.40
2018-03-03T11:37:36.627Z,144.50
2018-03-03T11:38:36.377Z,192.60
2018-03-03T11:39:36.292Z,121.70
2018-03-03T11:40:36.233Z,108.30
2018-03-03T11:41:36.171Z,102.60
2018-03-03T11:42:36.155Z,94.80
2018-03-03T11:43:35.927Z,109.60
2018-03-03T11:44:35.873Z,100.60
2018-03-03T11:45:35.819Z,102.90
2018-03-03T11:46:35.749Z,103.40
2018-03-03T11:47:35.551Z,111.30
2018-03-03T11:48:35.475Z,95.90
2018-03-03T11:49:35.350Z,98.00
2018-03-03T11:50:35.225Z,92.80
2018-03-03T11:51:35.128Z,94.10
2018-03-03T11:52:35.017Z,101.90
2018-03-03T11:53:34.934Z,102.10
2018-03-03T11:54:34.891Z,93.70
2018-03-03T11:55:34.765Z,92.90
2018-03-03T11:56:34.847Z,94.60
2018-03-03T11:57:34.547Z,98.70
2018-03-03T11:58:34.459Z,92.50
2018-03-03T11:59:34.367Z,104.10
2018-03-03T12:00:34.412Z,101.20
2018-03-03T12:01:34.168Z,95.90
2018-03-03T12:02:34.130Z,99.20
2018-03-03T12:03:34.016Z,94.20
2018-03-03T12:04:33.906Z,95.60
2018-03-03T12:05:33.849Z,95.80
2018-03-03T12:06:33.892Z,98.40
2018-03-03T12:07:33.629Z,94.60
2018-03-03T12:08:33.535Z,101.80
2018-03-03T12:09:33.445Z,95.40
2018-03-03T12:10:33.365Z,99.20
2018-03-03T12:11:33.224Z,96.00
2018-03-03T12:12:33.193Z,95.30
2018-03-03T12:13:33.024Z,99.00
2018-03-03T12:14:32.908Z,93.20
2018-03-03T12:15:32.795Z,99.80
2018-03-03T12:16:32.733Z,182.90
2018-03-03T12:17:32.634Z,95.70
2018-03-03T12:18:32.573Z,104.70
2018-03-03T12:19:32.469Z,100.10
2018-03-03T12:20:37.539Z,106.40
2018-03-03T12:21:37.293Z,105.20
2018-03-03T12:22:37.114Z,154.30
2018-03-03T12:23:37.072Z,108.90
2018-03-03T12:24:36.910Z,123.10
2018-03-03T12:25:36.853Z,101.80
2018-03-03T12:26:36.697Z,100.10
2018-03-03T12:27:36.984Z,117.00
2018-03-03T12:28:36.516Z,110.50
2018-03-03T12:29:36.472Z,96.50
2018-03-03T12:30:36.394Z,99.80
2018-03-03T12:31:36.262Z,97.30
2018-03-03T12:32:36.161Z,103.40
2018-03-03T12:33:36.449Z,97.10
2018-03-03T12:34:35.967Z,137.20
2018-03-03T12:35:35.886Z,99.80
2018-03-03T12:36:35.765Z,93.30
2018-03-03T12:37:35.699Z,87.40
2018-03-03T12:38:35.592Z,94.00
2018-03-03T12:39:35.487Z,98.30
2018-03-03T12:40:35.460Z,96.10
2018-03-03T12:41:35.325Z,94.40
2018-03-03T12:42:35.155Z,96.20
2018-03-03T12:43:35.142Z,97.80
2018-03-03T12:44:34.995Z,100.40
2018-03-03T12:45:34.868Z,98.00
2018-03-03T12:46:34.790Z,83.90
2018-03-03T12:47:34.768Z,92.00